Scf Samotlor — A8SW7 — position and weather

sailwx.info

Track history (hours):
 
Tides and Currents Weather Stations Pressure Air Temp Water Temp Dewpoint Dewpoint Depression Visibility Wind Speed Wind Dir Waves Ship Positions

Scf Samotlor

Last reported at 2018-Jun-14 13:05 UTC. Time now 2018-Jun-23 10:20 UTC.
Position N 27°37' W 015°15'.
Warning: this ship's position is 8 days out of date.

Length 273 m; draft 9.3 m.

Type: Ship (hazmat cat A). MMSI: 636014309.

Date/timePositionNaut miles runAvg speedWind from/ knotsBaromVisibWave heightAir tempDewpointWater temp
2018-Jun-14 13:05N 27°37' W 015°15'212.3
2018-Jun-14 12:54N 27°39' W 015°15'512.2
2018-Jun-14 12:30N 27°44' W 015°15'612.1
2018-Jun-14 12:00N 27°50' W 015°15'612.8
2018-Jun-14 11:30N 27°57' W 015°15'611.6
2018-Jun-14 11:00N 28°02' W 015°17'612.4
2018-Jun-14 10:30N 28°07' W 015°21'2 4.7
2018-Jun-14 10:00N 28°09' W 015°24'0 0.3
2018-Jun-14 09:30N 28°09' W 015°24'0 0.2
2018-Jun-14 09:00N 28°09' W 015°24'0 0.2
2018-Jun-14 08:30N 28°09' W 015°24'0 0.1
2018-Jun-14 07:51N 28°09' W 015°24'0 0.0
2018-Jun-14 07:21N 28°09' W 015°24'0 0.0
2018-Jun-14 06:51N 28°09' W 015°24'0 0.0
2018-Jun-14 06:21N 28°09' W 015°24'0 0.0
2018-Jun-14 05:54N 28°09' W 015°24'0 0.0
2018-Jun-14 05:24N 28°09' W 015°24'0 0.1
2018-Jun-14 04:54N 28°09' W 015°24'0 0.0
2018-Jun-14 04:24N 28°09' W 015°24'0 0.1
2018-Jun-14 03:54N 28°09' W 015°24'0 0.0
2018-Jun-14 03:24N 28°09' W 015°24'0 0.1
2018-Jun-14 02:57N 28°09' W 015°24'0 0.0
2018-Jun-14 02:27N 28°09' W 015°24'0 0.0
2018-Jun-14 01:57N 28°09' W 015°24'0 0.0
2018-Jun-14 01:27N 28°09' W 015°24'0 0.0
2018-Jun-14 01:00N 28°09' W 015°24'0 0.0
2018-Jun-14 00:30N 28°09' W 015°24'0 0.0
2018-Jun-14 00:00N 28°09' W 015°24'0 0.0
2018-Jun-13 23:30N 28°09' W 015°24'0 0.0
2018-Jun-13 23:00N 28°09' W 015°24'0 0.1
2018-Jun-13 22:30N 28°09' W 015°24'0 0.3
2018-Jun-13 22:00N 28°09' W 015°23'1 2.8
2018-Jun-13 21:30N 28°09' W 015°22'1 1.1
2018-Jun-13 21:00N 28°09' W 015°21'5 9.0
2018-Jun-13 20:30N 28°13' W 015°19'510.8
2018-Jun-13 20:00N 28°18' W 015°16'612.6
2018-Jun-13 19:30N 28°24' W 015°14'713.3
2018-Jun-13 19:00N 28°30' W 015°12'713.2
2018-Jun-13 18:30N 28°37' W 015°11'713.0
2018-Jun-13 18:00N 28°43' W 015°10'612.8
2018-Jun-13 17:30N 28°50' W 015°09'712.8
2018-Jun-13 16:59N 28°56' W 015°08'2112.6
2018-Jun-13 15:19N 29°17' W 015°04'512.5
2018-Jun-13 14:55N 29°22' W 015°03'512.5
2018-Jun-13 14:30N 29°27' W 015°02'1112.4
2018-Jun-13 13:39N 29°37' W 014°60'212.5
2018-Jun-13 13:30N 29°39' W 014°60'  
2018-Jun-09 00:05N 48°41' W 006°00'212.1
2018-Jun-08 23:53N 48°43' W 005°58'412.0
2018-Jun-08 23:31N 48°47' W 005°55'612.0
2018-Jun-08 23:00N 48°52' W 005°50'611.2
2018-Jun-08 22:30N 48°56' W 005°44'611.7
2018-Jun-08 22:00N 48°59' W 005°37'711.9
2018-Jun-08 21:26N 49°02' W 005°27'611.5
2018-Jun-08 20:54N 49°05' W 005°20'511.1
2018-Jun-08 20:27N 49°08' W 005°13'7212.5
2018-Jun-08 14:40N 49°46' W 003°38'212.1
2018-Jun-08 14:30N 49°47' W 003°36'711.9
2018-Jun-08 13:56N 49°50' W 003°26'511.7
2018-Jun-08 13:30N 49°52' W 003°19'611.8
2018-Jun-08 13:00N 49°55' W 003°11'612.1
2018-Jun-08 12:30N 49°58' W 003°03'612.4
2018-Jun-08 12:00N 49°60' W 002°54'612.8
2018-Jun-08 11:30N 50°01' W 002°44'713.1
2018-Jun-08 10:59N 50°03' W 002°34'713.6
2018-Jun-08 10:30N 50°05' W 002°24'714.0
2018-Jun-08 10:01N 50°07' W 002°14'714.4
2018-Jun-08 09:31N 50°08' W 002°03'714.7
2018-Jun-08 09:00N 50°10' W 001°52'714.8
2018-Jun-08 08:31N 50°12' W 001°41'714.7
2018-Jun-08 08:01N 50°14' W 001°30'714.6
2018-Jun-08 07:30N 50°16' W 001°19'714.1
2018-Jun-08 07:00N 50°18' W 001°08'713.7
2018-Jun-08 06:31N 50°20' W 000°58'713.2
2018-Jun-08 06:00N 50°22' W 000°48'712.6
2018-Jun-08 05:29N 50°23' W 000°38'612.3
2018-Jun-08 05:00N 50°25' W 000°29'612.0
2018-Jun-08 04:30N 50°27' W 000°20'611.8
2018-Jun-08 04:00N 50°28' W 000°11'611.7
2018-Jun-08 03:31N 50°30' W 000°02'611.6
2018-Jun-08 02:58N 50°31' E 000°07'511.6
2018-Jun-08 02:30N 50°33' E 000°16'611.9
2018-Jun-08 01:59N 50°34' E 000°25'612.3
2018-Jun-08 01:31N 50°36' E 000°34'612.1
2018-Jun-08 01:00N 50°39' E 000°42'713.2
2018-Jun-08 00:31N 50°43' E 000°50'713.5
2018-Jun-08 00:00N 50°47' E 000°59'713.6
2018-Jun-07 23:30N 50°51' E 001°08'713.6
2018-Jun-07 23:00N 50°54' E 001°17'713.5
2018-Jun-07 22:28N 50°60' E 001°24'613.1
2018-Jun-07 22:00N 51°04' E 001°31'612.6
2018-Jun-07 21:30N 51°09' E 001°38'611.9
2018-Jun-07 21:00N 51°13' E 001°45'611.9
2018-Jun-07 20:30N 51°18' E 001°50'611.7
2018-Jun-07 20:00N 51°23' E 001°55'611.7
2018-Jun-07 19:30N 51°28' E 002°00'611.9
2018-Jun-07 19:00N 51°33' E 002°05'612.3
2018-Jun-07 18:30N 51°38' E 002°11'612.1
2018-Jun-07 18:00N 51°43' E 002°17'612.6
2018-Jun-07 17:30N 51°47' E 002°24'612.9
2018-Jun-07 17:00N 51°52' E 002°31'713.2
2018-Jun-07 16:30N 51°57' E 002°38'713.6
2018-Jun-07 16:01N 52°02' E 002°46'1013.8
2018-Jun-07 15:18N 52°09' E 002°57'414.0
2018-Jun-07 15:00N 52°12' E 003°01'711.8
2018-Jun-07 14:22N 52°15' E 003°12'512.4
2018-Jun-07 14:00N 52°13' E 003°19'612.4
2018-Jun-07 13:30N 52°11' E 003°28'4 8.6
2018-Jun-07 13:01N 52°10' E 003°35'0 0.9
2018-Jun-07 12:29N 52°10' E 003°36'0 0.1
2018-Jun-07 11:59N 52°10' E 003°36'0 0.2
2018-Jun-07 11:23N 52°10' E 003°36'0 0.1
2018-Jun-07 10:59N 52°10' E 003°36'0 0.1
2018-Jun-07 10:29N 52°10' E 003°36'0 0.1
2018-Jun-07 09:59N 52°10' E 003°36'0 0.1
2018-Jun-07 09:29N 52°10' E 003°36'0 0.0
2018-Jun-07 08:59N 52°10' E 003°36'0 0.0
2018-Jun-07 08:29N 52°10' E 003°36'0 0.0
2018-Jun-07 07:59N 52°10' E 003°36'0 0.2
2018-Jun-07 07:26N 52°10' E 003°36'0 0.1
2018-Jun-07 06:59N 52°10' E 003°36'0 0.3
2018-Jun-07 06:29N 52°10' E 003°36'0 0.2
2018-Jun-07 05:59N 52°10' E 003°36'0 0.0
2018-Jun-07 05:29N 52°10' E 003°36'0 0.0
2018-Jun-07 04:59N 52°10' E 003°36'0 0.0
2018-Jun-07 04:29N 52°10' E 003°36'0 0.1
2018-Jun-07 03:59N 52°10' E 003°36'0 0.0
2018-Jun-07 03:29N 52°10' E 003°36'0 0.1
2018-Jun-07 02:59N 52°10' E 003°36'0 0.0
2018-Jun-07 02:29N 52°10' E 003°36'0 0.0
2018-Jun-07 01:50N 52°10' E 003°36'0 0.0
2018-Jun-07 01:29N 52°10' E 003°36'0 0.0
2018-Jun-07 00:59N 52°10' E 003°36'0 0.0
2018-Jun-07 00:29N 52°10' E 003°36'0 0.0
2018-Jun-06 23:56N 52°10' E 003°36'0 0.1
2018-Jun-06 23:29N 52°10' E 003°36'0 0.3
2018-Jun-06 22:59N 52°10' E 003°36'0 0.1
2018-Jun-06 22:29N 52°10' E 003°36'0 0.2
2018-Jun-06 21:59N 52°10' E 003°36'0 0.1
2018-Jun-06 21:29N 52°10' E 003°36'0 0.2
2018-Jun-06 20:59N 52°10' E 003°36'0 0.1
2018-Jun-06 19:59N 52°10' E 003°36'0 0.2
2018-Jun-06 19:29N 52°10' E 003°36'0 0.2
2018-Jun-06 18:59N 52°10' E 003°36'0 0.0
2018-Jun-06 18:29N 52°10' E 003°36'0 0.0
2018-Jun-06 17:56N 52°10' E 003°36'0 0.0
2018-Jun-06 17:29N 52°10' E 003°36'0 0.0
2018-Jun-06 16:59N 52°10' E 003°36'0 0.0
2018-Jun-06 16:29N 52°10' E 003°36'0 0.0
2018-Jun-06 15:59N 52°10' E 003°36'0 0.1
2018-Jun-06 15:29N 52°10' E 003°36'0 0.0
2018-Jun-06 14:59N 52°10' E 003°36'0 0.1
2018-Jun-06 14:29N 52°10' E 003°36'0 0.1
2018-Jun-06 13:59N 52°10' E 003°36'0 0.0
2018-Jun-06 13:29N 52°10' E 003°36'0 0.0
2018-Jun-06 12:59N 52°10' E 003°36'0 0.0
2018-Jun-06 12:29N 52°10' E 003°36'0 0.0
2018-Jun-06 11:59N 52°10' E 003°36'0 0.0
2018-Jun-06 11:29N 52°10' E 003°36'0 0.0
2018-Jun-06 10:56N 52°10' E 003°36'0 0.1
2018-Jun-06 10:26N 52°10' E 003°36'0 0.1
2018-Jun-06 09:59N 52°10' E 003°36'0 0.1
2018-Jun-06 09:14N 52°10' E 003°36'0 0.3
2018-Jun-06 08:59N 52°10' E 003°36'0 0.1
2018-Jun-06 08:29N 52°10' E 003°36'0 0.0
2018-Jun-06 07:56N 52°10' E 003°36'0 0.1
2018-Jun-06 07:29N 52°10' E 003°36'0 0.1
2018-Jun-06 06:59N 52°10' E 003°36'0 0.1
2018-Jun-06 06:26N 52°10' E 003°36'0 0.2
2018-Jun-06 05:56N 52°10' E 003°36'0 0.1
2018-Jun-06 05:29N 52°10' E 003°36'0 0.0
2018-Jun-06 04:56N 52°10' E 003°36'0 0.0
2018-Jun-06 04:29N 52°10' E 003°36'0 0.0
2018-Jun-06 03:59N 52°10' E 003°36'0 0.0
2018-Jun-06 03:26N 52°10' E 003°36'0 0.0
2018-Jun-06 02:59N 52°10' E 003°36'0 0.0
2018-Jun-06 02:29N 52°10' E 003°36'0 0.0
2018-Jun-06 01:59N 52°10' E 003°36'0 0.0
2018-Jun-06 01:29N 52°10' E 003°36'0 0.0
2018-Jun-06 00:59N 52°10' E 003°36'0 0.0
2018-Jun-06 00:29N 52°10' E 003°36'0 0.0
2018-Jun-05 23:59N 52°10' E 003°36'0 0.0
2018-Jun-05 23:29N 52°10' E 003°36'0 0.1
2018-Jun-05 22:59N 52°10' E 003°36'0 0.0
2018-Jun-05 22:29N 52°10' E 003°36'0 0.0
2018-Jun-05 21:59N 52°10' E 003°36'0 0.0
2018-Jun-05 21:29N 52°10' E 003°36'0 0.0
2018-Jun-05 20:59N 52°10' E 003°36'0 0.3
2018-Jun-05 20:29N 52°10' E 003°36'0 0.2
2018-Jun-05 19:56N 52°10' E 003°36'0 0.0
2018-Jun-05 19:29N 52°10' E 003°36'0 0.1
2018-Jun-05 18:56N 52°10' E 003°36'0 0.0
2018-Jun-05 18:29N 52°10' E 003°36'0 0.1
2018-Jun-05 17:59N 52°10' E 003°36'0 0.1
2018-Jun-05 17:23N 52°10' E 003°36'0 0.0
2018-Jun-05 16:59N 52°10' E 003°36'0 0.0
2018-Jun-05 16:23N 52°10' E 003°36'0 0.1
2018-Jun-05 15:59N 52°10' E 003°36'0 0.0
2018-Jun-05 15:29N 52°10' E 003°36'0 0.0
2018-Jun-05 14:59N 52°10' E 003°36'0 0.0
2018-Jun-05 14:29N 52°10' E 003°36'0 0.0
2018-Jun-05 13:59N 52°10' E 003°36'0 0.0
2018-Jun-05 13:29N 52°10' E 003°36'0 0.0
2018-Jun-05 12:59N 52°10' E 003°36'0 0.0
2018-Jun-05 12:29N 52°10' E 003°36'0 0.0
2018-Jun-05 11:59N 52°10' E 003°36'0 0.0
2018-Jun-05 11:29N 52°10' E 003°36'0 0.0
2018-Jun-05 10:59N 52°10' E 003°36'0 0.0
2018-Jun-05 10:26N 52°10' E 003°36'0 0.0
2018-Jun-05 09:59N 52°10' E 003°36'0 0.0
2018-Jun-05 09:29N 52°10' E 003°36'0 0.0
2018-Jun-05 08:59N 52°10' E 003°36'0 0.3
2018-Jun-05 08:29N 52°10' E 003°36'0 0.1
2018-Jun-05 07:59N 52°10' E 003°36'0 0.0
2018-Jun-05 07:29N 52°10' E 003°36'0 0.1
2018-Jun-05 06:59N 52°10' E 003°36'0 0.0
2018-Jun-05 06:29N 52°10' E 003°36'0 0.0
2018-Jun-05 05:56N 52°10' E 003°36'0 0.1
2018-Jun-05 05:29N 52°10' E 003°36'0 0.2
2018-Jun-05 04:59N 52°10' E 003°36'0 0.1
2018-Jun-05 04:23N 52°10' E 003°36'0 0.1
2018-Jun-05 03:56N 52°10' E 003°36'0 0.0
2018-Jun-05 03:29N 52°10' E 003°36'0 0.0
2018-Jun-05 02:56N 52°10' E 003°36'0 0.0
2018-Jun-05 02:29N 52°10' E 003°36'0 0.0
2018-Jun-05 01:50N 52°10' E 003°36'0 0.0
2018-Jun-05 01:26N 52°10' E 003°36'0 0.0
2018-Jun-05 00:59N 52°10' E 003°36'0 0.0
2018-Jun-05 00:29N 52°10' E 003°36'0 0.0
2018-Jun-04 23:50N 52°10' E 003°36'0 0.0
2018-Jun-04 23:26N 52°10' E 003°36'0 0.0
2018-Jun-04 22:59N 52°10' E 003°36'0 0.0
2018-Jun-04 22:23N 52°10' E 003°36'0 0.0
2018-Jun-04 21:59N 52°10' E 003°36'0 0.0
2018-Jun-04 21:26N 52°10' E 003°36'0 0.0
2018-Jun-04 20:59N 52°10' E 003°36'0 0.3
2018-Jun-04 20:26N 52°10' E 003°36'0 0.1
2018-Jun-04 19:59N 52°10' E 003°36'0 0.0
2018-Jun-04 19:29N 52°10' E 003°36'0 0.1
2018-Jun-04 18:59N 52°10' E 003°36'0 0.0
2018-Jun-04 18:30N 52°10' E 003°36'0 0.0
2018-Jun-04 18:00N 52°10' E 003°36'0 0.0
2018-Jun-04 17:31N 52°10' E 003°36'0 0.1
2018-Jun-04 16:59N 52°10' E 003°36'0 0.2
2018-Jun-04 16:30N 52°10' E 003°36'0 0.2
2018-Jun-04 16:00N 52°10' E 003°36'0 0.1
2018-Jun-04 15:30N 52°10' E 003°36'0 0.0
2018-Jun-04 15:01N 52°10' E 003°36'0 0.0
2018-Jun-04 14:28N 52°10' E 003°36'0 0.1
2018-Jun-04 14:01N 52°10' E 003°36'1 1.0
2018-Jun-04 13:31N 52°10' E 003°36'  
Track history (hours):
 
Tides and Currents Weather Stations Pressure Air Temp Water Temp Dewpoint Dewpoint Depression Visibility Wind Speed Wind Dir Waves Ship Positions

Scf Samotlor

Last reported at 2018-Jun-14 13:05 UTC. Time now 2018-Jun-23 10:20 UTC.
Position N 27°37' W 015°15'.
Warning: this ship's position is 8 days out of date.

Length 273 m; draft 9.3 m.

Type: Ship (hazmat cat A). MMSI: 636014309.

Date/timePositionNaut miles runAvg speedWind from/ knotsBaromVisibWave heightAir tempDewpointWater temp
2018-Jun-14 13:05N 27°37' W 015°15'212.3
2018-Jun-14 12:54N 27°39' W 015°15'512.2
2018-Jun-14 12:30N 27°44' W 015°15'612.1
2018-Jun-14 12:00N 27°50' W 015°15'612.8
2018-Jun-14 11:30N 27°57' W 015°15'611.6
2018-Jun-14 11:00N 28°02' W 015°17'612.4
2018-Jun-14 10:30N 28°07' W 015°21'2 4.7
2018-Jun-14 10:00N 28°09' W 015°24'0 0.3
2018-Jun-14 09:30N 28°09' W 015°24'0 0.2
2018-Jun-14 09:00N 28°09' W 015°24'0 0.2
2018-Jun-14 08:30N 28°09' W 015°24'0 0.1
2018-Jun-14 07:51N 28°09' W 015°24'0 0.0
2018-Jun-14 07:21N 28°09' W 015°24'0 0.0
2018-Jun-14 06:51N 28°09' W 015°24'0 0.0
2018-Jun-14 06:21N 28°09' W 015°24'0 0.0
2018-Jun-14 05:54N 28°09' W 015°24'0 0.0
2018-Jun-14 05:24N 28°09' W 015°24'0 0.1
2018-Jun-14 04:54N 28°09' W 015°24'0 0.0
2018-Jun-14 04:24N 28°09' W 015°24'0 0.1
2018-Jun-14 03:54N 28°09' W 015°24'0 0.0
2018-Jun-14 03:24N 28°09' W 015°24'0 0.1
2018-Jun-14 02:57N 28°09' W 015°24'0 0.0
2018-Jun-14 02:27N 28°09' W 015°24'0 0.0
2018-Jun-14 01:57N 28°09' W 015°24'0 0.0
2018-Jun-14 01:27N 28°09' W 015°24'0 0.0
2018-Jun-14 01:00N 28°09' W 015°24'0 0.0
2018-Jun-14 00:30N 28°09' W 015°24'0 0.0
2018-Jun-14 00:00N 28°09' W 015°24'0 0.0
2018-Jun-13 23:30N 28°09' W 015°24'0 0.0
2018-Jun-13 23:00N 28°09' W 015°24'0 0.1
2018-Jun-13 22:30N 28°09' W 015°24'0 0.3
2018-Jun-13 22:00N 28°09' W 015°23'1 2.8
2018-Jun-13 21:30N 28°09' W 015°22'1 1.1
2018-Jun-13 21:00N 28°09' W 015°21'5 9.0
2018-Jun-13 20:30N 28°13' W 015°19'510.8
2018-Jun-13 20:00N 28°18' W 015°16'612.6
2018-Jun-13 19:30N 28°24' W 015°14'713.3
2018-Jun-13 19:00N 28°30' W 015°12'713.2
2018-Jun-13 18:30N 28°37' W 015°11'713.0
2018-Jun-13 18:00N 28°43' W 015°10'612.8
2018-Jun-13 17:30N 28°50' W 015°09'712.8
2018-Jun-13 16:59N 28°56' W 015°08'2112.6
2018-Jun-13 15:19N 29°17' W 015°04'512.5
2018-Jun-13 14:55N 29°22' W 015°03'512.5
2018-Jun-13 14:30N 29°27' W 015°02'1112.4
2018-Jun-13 13:39N 29°37' W 014°60'212.5
2018-Jun-13 13:30N 29°39' W 014°60'  
2018-Jun-09 00:05N 48°41' W 006°00'212.1
2018-Jun-08 23:53N 48°43' W 005°58'412.0
2018-Jun-08 23:31N 48°47' W 005°55'612.0
2018-Jun-08 23:00N 48°52' W 005°50'611.2
2018-Jun-08 22:30N 48°56' W 005°44'611.7
2018-Jun-08 22:00N 48°59' W 005°37'711.9
2018-Jun-08 21:26N 49°02' W 005°27'611.5
2018-Jun-08 20:54N 49°05' W 005°20'511.1
2018-Jun-08 20:27N 49°08' W 005°13'7212.5
2018-Jun-08 14:40N 49°46' W 003°38'212.1
2018-Jun-08 14:30N 49°47' W 003°36'711.9
2018-Jun-08 13:56N 49°50' W 003°26'511.7
2018-Jun-08 13:30N 49°52' W 003°19'611.8
2018-Jun-08 13:00N 49°55' W 003°11'612.1
2018-Jun-08 12:30N 49°58' W 003°03'612.4
2018-Jun-08 12:00N 49°60' W 002°54'612.8
2018-Jun-08 11:30N 50°01' W 002°44'713.1
2018-Jun-08 10:59N 50°03' W 002°34'713.6
2018-Jun-08 10:30N 50°05' W 002°24'714.0
2018-Jun-08 10:01N 50°07' W 002°14'714.4
2018-Jun-08 09:31N 50°08' W 002°03'714.7
2018-Jun-08 09:00N 50°10' W 001°52'714.8
2018-Jun-08 08:31N 50°12' W 001°41'714.7
2018-Jun-08 08:01N 50°14' W 001°30'714.6
2018-Jun-08 07:30N 50°16' W 001°19'714.1
2018-Jun-08 07:00N 50°18' W 001°08'713.7
2018-Jun-08 06:31N 50°20' W 000°58'713.2
2018-Jun-08 06:00N 50°22' W 000°48'712.6
2018-Jun-08 05:29N 50°23' W 000°38'612.3
2018-Jun-08 05:00N 50°25' W 000°29'612.0
2018-Jun-08 04:30N 50°27' W 000°20'611.8
2018-Jun-08 04:00N 50°28' W 000°11'611.7
2018-Jun-08 03:31N 50°30' W 000°02'611.6
2018-Jun-08 02:58N 50°31' E 000°07'511.6
2018-Jun-08 02:30N 50°33' E 000°16'611.9
2018-Jun-08 01:59N 50°34' E 000°25'612.3
2018-Jun-08 01:31N 50°36' E 000°34'612.1
2018-Jun-08 01:00N 50°39' E 000°42'713.2
2018-Jun-08 00:31N 50°43' E 000°50'713.5
2018-Jun-08 00:00N 50°47' E 000°59'713.6
2018-Jun-07 23:30N 50°51' E 001°08'713.6
2018-Jun-07 23:00N 50°54' E 001°17'713.5
2018-Jun-07 22:28N 50°60' E 001°24'613.1
2018-Jun-07 22:00N 51°04' E 001°31'612.6
2018-Jun-07 21:30N 51°09' E 001°38'611.9
2018-Jun-07 21:00N 51°13' E 001°45'611.9
2018-Jun-07 20:30N 51°18' E 001°50'611.7
2018-Jun-07 20:00N 51°23' E 001°55'611.7
2018-Jun-07 19:30N 51°28' E 002°00'611.9
2018-Jun-07 19:00N 51°33' E 002°05'612.3
2018-Jun-07 18:30N 51°38' E 002°11'612.1
2018-Jun-07 18:00N 51°43' E 002°17'612.6
2018-Jun-07 17:30N 51°47' E 002°24'612.9
2018-Jun-07 17:00N 51°52' E 002°31'713.2
2018-Jun-07 16:30N 51°57' E 002°38'713.6
2018-Jun-07 16:01N 52°02' E 002°46'1013.8
2018-Jun-07 15:18N 52°09' E 002°57'414.0
2018-Jun-07 15:00N 52°12' E 003°01'711.8
2018-Jun-07 14:22N 52°15' E 003°12'512.4
2018-Jun-07 14:00N 52°13' E 003°19'612.4
2018-Jun-07 13:30N 52°11' E 003°28'4 8.6
2018-Jun-07 13:01N 52°10' E 003°35'0 0.9
2018-Jun-07 12:29N 52°10' E 003°36'0 0.1
2018-Jun-07 11:59N 52°10' E 003°36'0 0.2
2018-Jun-07 11:23N 52°10' E 003°36'0 0.1
2018-Jun-07 10:59N 52°10' E 003°36'0 0.1
2018-Jun-07 10:29N 52°10' E 003°36'0 0.1
2018-Jun-07 09:59N 52°10' E 003°36'0 0.1
2018-Jun-07 09:29N 52°10' E 003°36'0 0.0
2018-Jun-07 08:59N 52°10' E 003°36'0 0.0
2018-Jun-07 08:29N 52°10' E 003°36'0 0.0
2018-Jun-07 07:59N 52°10' E 003°36'0 0.2
2018-Jun-07 07:26N 52°10' E 003°36'0 0.1
2018-Jun-07 06:59N 52°10' E 003°36'0 0.3
2018-Jun-07 06:29N 52°10' E 003°36'0 0.2
2018-Jun-07 05:59N 52°10' E 003°36'0 0.0
2018-Jun-07 05:29N 52°10' E 003°36'0 0.0
2018-Jun-07 04:59N 52°10' E 003°36'0 0.0
2018-Jun-07 04:29N 52°10' E 003°36'0 0.1
2018-Jun-07 03:59N 52°10' E 003°36'0 0.0
2018-Jun-07 03:29N 52°10' E 003°36'0 0.1
2018-Jun-07 02:59N 52°10' E 003°36'0 0.0
2018-Jun-07 02:29N 52°10' E 003°36'0 0.0
2018-Jun-07 01:50N 52°10' E 003°36'0 0.0
2018-Jun-07 01:29N 52°10' E 003°36'0 0.0
2018-Jun-07 00:59N 52°10' E 003°36'0 0.0
2018-Jun-07 00:29N 52°10' E 003°36'0 0.0
2018-Jun-06 23:56N 52°10' E 003°36'0 0.1
2018-Jun-06 23:29N 52°10' E 003°36'0 0.3
2018-Jun-06 22:59N 52°10' E 003°36'0 0.1
2018-Jun-06 22:29N 52°10' E 003°36'0 0.2
2018-Jun-06 21:59N 52°10' E 003°36'0 0.1
2018-Jun-06 21:29N 52°10' E 003°36'0 0.2
2018-Jun-06 20:59N 52°10' E 003°36'0 0.1
2018-Jun-06 19:59N 52°10' E 003°36'0 0.2
2018-Jun-06 19:29N 52°10' E 003°36'0 0.2
2018-Jun-06 18:59N 52°10' E 003°36'0 0.0
2018-Jun-06 18:29N 52°10' E 003°36'0 0.0
2018-Jun-06 17:56N 52°10' E 003°36'0 0.0
2018-Jun-06 17:29N 52°10' E 003°36'0 0.0
2018-Jun-06 16:59N 52°10' E 003°36'0 0.0
2018-Jun-06 16:29N 52°10' E 003°36'0 0.0
2018-Jun-06 15:59N 52°10' E 003°36'0 0.1
2018-Jun-06 15:29N 52°10' E 003°36'0 0.0
2018-Jun-06 14:59N 52°10' E 003°36'0 0.1
2018-Jun-06 14:29N 52°10' E 003°36'0 0.1
2018-Jun-06 13:59N 52°10' E 003°36'0 0.0
2018-Jun-06 13:29N 52°10' E 003°36'0 0.0
2018-Jun-06 12:59N 52°10' E 003°36'0 0.0
2018-Jun-06 12:29N 52°10' E 003°36'0 0.0
2018-Jun-06 11:59N 52°10' E 003°36'0 0.0
2018-Jun-06 11:29N 52°10' E 003°36'0 0.0
2018-Jun-06 10:56N 52°10' E 003°36'0 0.1
2018-Jun-06 10:26N 52°10' E 003°36'0 0.1
2018-Jun-06 09:59N 52°10' E 003°36'0 0.1
2018-Jun-06 09:14N 52°10' E 003°36'0 0.3
2018-Jun-06 08:59N 52°10' E 003°36'0 0.1
2018-Jun-06 08:29N 52°10' E 003°36'0 0.0
2018-Jun-06 07:56N 52°10' E 003°36'0 0.1
2018-Jun-06 07:29N 52°10' E 003°36'0 0.1
2018-Jun-06 06:59N 52°10' E 003°36'0 0.1
2018-Jun-06 06:26N 52°10' E 003°36'0 0.2
2018-Jun-06 05:56N 52°10' E 003°36'0 0.1
2018-Jun-06 05:29N 52°10' E 003°36'0 0.0
2018-Jun-06 04:56N 52°10' E 003°36'0 0.0
2018-Jun-06 04:29N 52°10' E 003°36'0 0.0
2018-Jun-06 03:59N 52°10' E 003°36'0 0.0
2018-Jun-06 03:26N 52°10' E 003°36'0 0.0
2018-Jun-06 02:59N 52°10' E 003°36'0 0.0
2018-Jun-06 02:29N 52°10' E 003°36'0 0.0
2018-Jun-06 01:59N 52°10' E 003°36'0 0.0
2018-Jun-06 01:29N 52°10' E 003°36'0 0.0
2018-Jun-06 00:59N 52°10' E 003°36'0 0.0
2018-Jun-06 00:29N 52°10' E 003°36'0 0.0
2018-Jun-05 23:59N 52°10' E 003°36'0 0.0
2018-Jun-05 23:29N 52°10' E 003°36'0 0.1
2018-Jun-05 22:59N 52°10' E 003°36'0 0.0
2018-Jun-05 22:29N 52°10' E 003°36'0 0.0
2018-Jun-05 21:59N 52°10' E 003°36'0 0.0
2018-Jun-05 21:29N 52°10' E 003°36'0 0.0
2018-Jun-05 20:59N 52°10' E 003°36'0 0.3
2018-Jun-05 20:29N 52°10' E 003°36'0 0.2
2018-Jun-05 19:56N 52°10' E 003°36'0 0.0
2018-Jun-05 19:29N 52°10' E 003°36'0 0.1
2018-Jun-05 18:56N 52°10' E 003°36'0 0.0
2018-Jun-05 18:29N 52°10' E 003°36'0 0.1
2018-Jun-05 17:59N 52°10' E 003°36'0 0.1
2018-Jun-05 17:23N 52°10' E 003°36'0 0.0
2018-Jun-05 16:59N 52°10' E 003°36'0 0.0
2018-Jun-05 16:23N 52°10' E 003°36'0 0.1
2018-Jun-05 15:59N 52°10' E 003°36'0 0.0
2018-Jun-05 15:29N 52°10' E 003°36'0 0.0
2018-Jun-05 14:59N 52°10' E 003°36'0 0.0
2018-Jun-05 14:29N 52°10' E 003°36'0 0.0
2018-Jun-05 13:59N 52°10' E 003°36'0 0.0
2018-Jun-05 13:29N 52°10' E 003°36'0 0.0
2018-Jun-05 12:59N 52°10' E 003°36'0 0.0
2018-Jun-05 12:29N 52°10' E 003°36'0 0.0
2018-Jun-05 11:59N 52°10' E 003°36'0 0.0
2018-Jun-05 11:29N 52°10' E 003°36'0 0.0
2018-Jun-05 10:59N 52°10' E 003°36'0 0.0
2018-Jun-05 10:26N 52°10' E 003°36'0 0.0
2018-Jun-05 09:59N 52°10' E 003°36'0 0.0
2018-Jun-05 09:29N 52°10' E 003°36'0 0.0
2018-Jun-05 08:59N 52°10' E 003°36'0 0.3
2018-Jun-05 08:29N 52°10' E 003°36'0 0.1
2018-Jun-05 07:59N 52°10' E 003°36'0 0.0
2018-Jun-05 07:29N 52°10' E 003°36'0 0.1
2018-Jun-05 06:59N 52°10' E 003°36'0 0.0
2018-Jun-05 06:29N 52°10' E 003°36'0 0.0
2018-Jun-05 05:56N 52°10' E 003°36'0 0.1
2018-Jun-05 05:29N 52°10' E 003°36'0 0.2
2018-Jun-05 04:59N 52°10' E 003°36'0 0.1
2018-Jun-05 04:23N 52°10' E 003°36'0 0.1
2018-Jun-05 03:56N 52°10' E 003°36'0 0.0
2018-Jun-05 03:29N 52°10' E 003°36'0 0.0
2018-Jun-05 02:56N 52°10' E 003°36'0 0.0
2018-Jun-05 02:29N 52°10' E 003°36'0 0.0
2018-Jun-05 01:50N 52°10' E 003°36'0 0.0
2018-Jun-05 01:26N 52°10' E 003°36'0 0.0
2018-Jun-05 00:59N 52°10' E 003°36'0 0.0
2018-Jun-05 00:29N 52°10' E 003°36'0 0.0
2018-Jun-04 23:50N 52°10' E 003°36'0 0.0
2018-Jun-04 23:26N 52°10' E 003°36'0 0.0
2018-Jun-04 22:59N 52°10' E 003°36'0 0.0
2018-Jun-04 22:23N 52°10' E 003°36'0 0.0
2018-Jun-04 21:59N 52°10' E 003°36'0 0.0
2018-Jun-04 21:26N 52°10' E 003°36'0 0.0
2018-Jun-04 20:59N 52°10' E 003°36'0 0.3
2018-Jun-04 20:26N 52°10' E 003°36'0 0.1
2018-Jun-04 19:59N 52°10' E 003°36'0 0.0
2018-Jun-04 19:29N 52°10' E 003°36'0 0.1
2018-Jun-04 18:59N 52°10' E 003°36'0 0.0
2018-Jun-04 18:30N 52°10' E 003°36'0 0.0
2018-Jun-04 18:00N 52°10' E 003°36'0 0.0
2018-Jun-04 17:31N 52°10' E 003°36'0 0.1
2018-Jun-04 16:59N 52°10' E 003°36'0 0.2
2018-Jun-04 16:30N 52°10' E 003°36'0 0.2
2018-Jun-04 16:00N 52°10' E 003°36'0 0.1
2018-Jun-04 15:30N 52°10' E 003°36'0 0.0
2018-Jun-04 15:01N 52°10' E 003°36'0 0.0
2018-Jun-04 14:28N 52°10' E 003°36'0 0.1
2018-Jun-04 14:01N 52°10' E 003°36'1 1.0
2018-Jun-04 13:31N 52°10' E 003°36'  

Dump ship's entire track history